sensor_id;sensor_type;location;lat;lon;timestamp;temperature;humidity
67147;DHT22;54061;52.036;5.558;2023-04-23T19:41:10;15.80;96.40
67147;DHT22;54061;52.036;5.558;2023-04-23T19:43:35;15.90;90.90
67147;DHT22;54061;52.036;5.558;2023-04-23T19:46:01;15.80;91.20
67147;DHT22;54061;52.036;5.558;2023-04-23T19:48:26;15.80;91.80
67147;DHT22;54061;52.036;5.558;2023-04-23T19:50:52;15.80;92.40
67147;DHT22;54061;52.036;5.558;2023-04-23T19:53:19;15.80;93.10
67147;DHT22;54061;52.036;5.558;2023-04-23T19:55:45;15.80;93.80
67147;DHT22;54061;52.036;5.558;2023-04-23T19:58:11;15.80;94.40
67147;DHT22;54061;52.036;5.558;2023-04-23T20:00:37;15.80;94.90
67147;DHT22;54061;52.036;5.558;2023-04-23T20:03:04;15.80;95.50
67147;DHT22;54061;52.036;5.558;2023-04-23T20:05:31;15.80;96.00
67147;DHT22;54061;52.036;5.558;2023-04-23T20:07:57;15.80;96.60
67147;DHT22;54061;52.036;5.558;2023-04-23T20:10:24;15.80;97.00
67147;DHT22;54061;52.036;5.558;2023-04-23T20:12:55;15.80;97.40
67147;DHT22;54061;52.036;5.558;2023-04-23T20:15:20;15.90;97.90
67147;DHT22;54061;52.036;5.558;2023-04-23T20:17:48;15.90;98.20
67147;DHT22;54061;52.036;5.558;2023-04-23T20:20:14;15.90;98.80
67147;DHT22;54061;52.036;5.558;2023-04-23T20:22:40;15.90;98.80
67147;DHT22;54061;52.036;5.558;2023-04-23T20:25:06;15.90;99.00
67147;DHT22;54061;52.036;5.558;2023-04-23T20:27:32;15.90;99.20
67147;DHT22;54061;52.036;5.558;2023-04-23T20:29:58;15.90;99.50
67147;DHT22;54061;52.036;5.558;2023-04-23T20:32:24;15.90;99.70
67147;DHT22;54061;52.036;5.558;2023-04-23T20:34:49;15.90;99.80
67147;DHT22;54061;52.036;5.558;2023-04-23T20:37:15;15.90;99.90
67147;DHT22;54061;52.036;5.558;2023-04-23T20:39:45;15.90;99.90
67147;DHT22;54061;52.036;5.558;2023-04-23T20:42:11;15.90;99.90
67147;DHT22;54061;52.036;5.558;2023-04-23T20:44:37;15.90;99.90
67147;DHT22;54061;52.036;5.558;2023-04-23T20:47:02;15.90;99.90
67147;DHT22;54061;52.036;5.558;2023-04-23T20:49:32;15.90;99.90
67147;DHT22;54061;52.036;5.558;2023-04-23T20:51:57;16.00;99.90
67147;DHT22;54061;52.036;5.558;2023-04-23T20:54:23;16.00;99.90
67147;DHT22;54061;52.036;5.558;2023-04-23T20:56:48;15.90;99.90
67147;DHT22;54061;52.036;5.558;2023-04-23T20:59:18;16.00;99.90
67147;DHT22;54061;52.036;5.558;2023-04-23T21:01:44;16.00;99.90
67147;DHT22;54061;52.036;5.558;2023-04-23T21:04:10;16.00;99.90
67147;DHT22;54061;52.036;5.558;2023-04-23T21:06:36;16.00;99.90
67147;DHT22;54061;52.036;5.558;2023-04-23T21:09:01;16.00;99.90
67147;DHT22;54061;52.036;5.558;2023-04-23T21:11:28;15.90;99.90
67147;DHT22;54061;52.036;5.558;2023-04-23T21:13:53;16.00;99.90
67147;DHT22;54061;52.036;5.558;2023-04-23T21:16:20;15.90;99.90
67147;DHT22;54061;52.036;5.558;2023-04-23T21:18:45;16.00;99.90
67147;DHT22;54061;52.036;5.558;2023-04-23T21:21:11;15.90;99.90
67147;DHT22;54061;52.036;5.558;2023-04-23T21:23:37;16.00;99.90
67147;DHT22;54061;52.036;5.558;2023-04-23T21:26:02;16.00;99.90
67147;DHT22;54061;52.036;5.558;2023-04-23T21:28:28;16.00;99.90
67147;DHT22;54061;52.036;5.558;2023-04-23T21:30:55;15.90;99.90
67147;DHT22;54061;52.036;5.558;2023-04-23T21:33:22;16.00;99.90
67147;DHT22;54061;52.036;5.558;2023-04-23T21:35:49;15.90;99.90
67147;DHT22;54061;52.036;5.558;2023-04-23T21:38:18;15.90;99.90
67147;DHT22;54061;52.036;5.558;2023-04-23T21:40:43;15.90;99.90
67147;DHT22;54061;52.036;5.558;2023-04-23T21:43:10;15.90;99.90
67147;DHT22;54061;52.036;5.558;2023-04-23T21:45:36;15.90;99.90
67147;DHT22;54061;52.036;5.558;2023-04-23T21:48:02;15.90;99.90
67147;DHT22;54061;52.036;5.558;2023-04-23T21:50:29;15.90;99.90
67147;DHT22;54061;52.036;5.558;2023-04-23T21:52:55;15.90;99.90
67147;DHT22;54061;52.036;5.558;2023-04-23T21:55:27;15.90;99.90
67147;DHT22;54061;52.036;5.558;2023-04-23T21:57:53;15.90;99.90
67147;DHT22;54061;52.036;5.558;2023-04-23T22:00:20;15.90;99.90
67147;DHT22;54061;52.036;5.558;2023-04-23T22:02:46;15.90;99.90
67147;DHT22;54061;52.036;5.558;2023-04-23T22:05:16;15.90;99.90
67147;DHT22;54061;52.036;5.558;2023-04-23T22:07:44;15.90;99.90
67147;DHT22;54061;52.036;5.558;2023-04-23T22:10:12;15.90;99.90
67147;DHT22;54061;52.036;5.558;2023-04-23T22:12:38;15.90;99.90
67147;DHT22;54061;52.036;5.558;2023-04-23T22:15:06;15.90;99.90
67147;DHT22;54061;52.036;5.558;2023-04-23T22:17:32;15.90;99.90
67147;DHT22;54061;52.036;5.558;2023-04-23T22:20:01;15.90;99.90
67147;DHT22;54061;52.036;5.558;2023-04-23T22:22:30;15.90;99.90
67147;DHT22;54061;52.036;5.558;2023-04-23T22:24:56;15.90;99.90
67147;DHT22;54061;52.036;5.558;2023-04-23T22:27:21;15.80;99.90
67147;DHT22;54061;52.036;5.558;2023-04-23T22:29:47;15.80;99.90
67147;DHT22;54061;52.036;5.558;2023-04-23T22:32:12;15.80;99.90
67147;DHT22;54061;52.036;5.558;2023-04-23T22:34:38;15.80;99.90
67147;DHT22;54061;52.036;5.558;2023-04-23T22:37:03;15.80;99.90
67147;DHT22;54061;52.036;5.558;2023-04-23T22:39:29;15.80;99.90
67147;DHT22;54061;52.036;5.558;2023-04-23T22:41:54;15.80;99.90
67147;DHT22;54061;52.036;5.558;2023-04-23T22:44:21;15.80;99.90
67147;DHT22;54061;52.036;5.558;2023-04-23T22:46:46;15.80;99.90
67147;DHT22;54061;52.036;5.558;2023-04-23T22:49:12;15.80;99.90
67147;DHT22;54061;52.036;5.558;2023-04-23T22:51:38;15.80;99.90
67147;DHT22;54061;52.036;5.558;2023-04-23T22:54:04;15.80;99.80
67147;DHT22;54061;52.036;5.558;2023-04-23T22:56:30;15.80;99.80
67147;DHT22;54061;52.036;5.558;2023-04-23T22:58:55;15.80;99.80
67147;DHT22;54061;52.036;5.558;2023-04-23T23:01:21;15.80;99.70
67147;DHT22;54061;52.036;5.558;2023-04-23T23:03:46;15.80;99.70
67147;DHT22;54061;52.036;5.558;2023-04-23T23:06:12;15.70;99.70
67147;DHT22;54061;52.036;5.558;2023-04-23T23:08:37;15.70;99.50
67147;DHT22;54061;52.036;5.558;2023-04-23T23:11:03;15.80;99.50
67147;DHT22;54061;52.036;5.558;2023-04-23T23:13:28;15.70;99.40
67147;DHT22;54061;52.036;5.558;2023-04-23T23:15:54;15.70;99.40
67147;DHT22;54061;52.036;5.558;2023-04-23T23:18:24;15.80;99.40
67147;DHT22;54061;52.036;5.558;2023-04-23T23:20:50;15.70;99.30
67147;DHT22;54061;52.036;5.558;2023-04-23T23:23:16;15.70;99.20
67147;DHT22;54061;52.036;5.558;2023-04-23T23:25:41;15.70;99.30
67147;DHT22;54061;52.036;5.558;2023-04-23T23:28:07;15.70;99.20
67147;DHT22;54061;52.036;5.558;2023-04-23T23:30:32;15.70;99.10
67147;DHT22;54061;52.036;5.558;2023-04-23T23:32:58;15.70;99.10
67147;DHT22;54061;52.036;5.558;2023-04-23T23:35:23;15.70;99.00
67147;DHT22;54061;52.036;5.558;2023-04-23T23:37:49;15.70;98.90
67147;DHT22;54061;52.036;5.558;2023-04-23T23:40:15;15.70;99.00
67147;DHT22;54061;52.036;5.558;2023-04-23T23:42:40;15.70;98.90
67147;DHT22;54061;52.036;5.558;2023-04-23T23:45:06;15.70;98.80
67147;DHT22;54061;52.036;5.558;2023-04-23T23:47:34;15.70;98.80
67147;DHT22;54061;52.036;5.558;2023-04-23T23:50:00;15.70;98.70
67147;DHT22;54061;52.036;5.558;2023-04-23T23:52:25;15.60;98.70
67147;DHT22;54061;52.036;5.558;2023-04-23T23:54:51;15.60;98.60
67147;DHT22;54061;52.036;5.558;2023-04-23T23:57:16;15.60;98.60
67147;DHT22;54061;52.036;5.558;2023-04-23T23:59:42;15.60;98.60
